NCAR-RAP Real-Time Weather Data

Output produced by METARs form (20 February 2019  17:49 UTC)
found at http://weather.rap.ucar.edu/surface/
 
Conditions at: KPIE observed 20 February 2019  16:53 UTC
Temperature: 28.3°C (83°F)
Dewpoint: 20.0°C (68°F) [RH = 61%]
Pressure (altimeter): 30.09 inches Hg (1019.0 mb)
[Sea-level pressure: 1018.9 mb]
Winds: from the SSE (160 degrees) at 20 MPH (17 knots; 8.8 m/s)
gusting to 25 MPH (22 knots; 11.4 m/s)
Visibility: 10 or more miles (16+ km)
Ceiling: at least 12,000 feet AGL
Clouds: few clouds at 3000 feet AGL
Present Weather: no significant weather observed at this time
KPIE 201653Z 16017G22KT 10SM FEW030 28/20 A3009 RMK AO2 SLP189 T02830200

Conditions at: KPIE observed 20 February 2019  15:53 UTC
Temperature: 26.7°C (80°F)
Dewpoint: 20.6°C (69°F) [RH = 69%]
Pressure (altimeter): 30.10 inches Hg (1019.4 mb)
[Sea-level pressure: 1019.3 mb]
Winds: from the SSE (150 degrees) at 13 MPH (11 knots; 5.7 m/s)
gusting to 25 MPH (22 knots; 11.4 m/s)
Visibility: 10 or more miles (16+ km)
Ceiling: at least 12,000 feet AGL
Clouds: scattered clouds at 2000 feet AGL
Present Weather: no significant weather observed at this time
KPIE 201553Z 15011G22KT 10SM SCT020 27/21 A3010 RMK AO2 SLP193 T02670206

Conditions at: KPIE observed 20 February 2019  14:53 UTC
Temperature: 25.0°C (77°F)
Dewpoint: 20.6°C (69°F) [RH = 77%]
Pressure (altimeter): 30.11 inches Hg (1019.7 mb)
[Sea-level pressure: 1019.5 mb]
Winds: from the SSE (150 degrees) at 12 MPH (10 knots; 5.2 m/s)
Visibility: 10 or more miles (16+ km)
Ceiling: 1300 feet AGL
Clouds: broken clouds at 1300 feet AGL
Present Weather: no significant weather observed at this time
KPIE 201453Z 15010KT 10SM BKN013 25/21 A3011 RMK AO2 SLP195 T02500206 51012

Conditions at: KPIE observed 20 February 2019  14:30 UTC
Temperature: 24.4°C (76°F)
Dewpoint: 20.6°C (69°F) [RH = 79%]
Pressure (altimeter): 30.11 inches Hg (1019.7 mb)
Winds: from the SSE (150 degrees) at 17 MPH (15 knots; 7.8 m/s)
gusting to 26 MPH (23 knots; 12.0 m/s)
Visibility: 10 or more miles (16+ km)
Ceiling: 1100 feet AGL
Clouds: overcast cloud deck at 1100 feet AGL
Present Weather: no significant weather observed at this time
KPIE 201430Z 15015G23KT 10SM OVC011 24/21 A3011 RMK AO2 T02440206

Conditions at: KPIE observed 20 February 2019  13:53 UTC
Temperature: 23.9°C (75°F)
Dewpoint: 20.6°C (69°F) [RH = 82%]
Pressure (altimeter): 30.10 inches Hg (1019.4 mb)
[Sea-level pressure: 1019.3 mb]
Winds: from the SSE (150 degrees) at 14 MPH (12 knots; 6.2 m/s)
Visibility: 10 or more miles (16+ km)
Ceiling: at least 12,000 feet AGL
Clouds: few clouds at 1100 feet AGL
Present Weather: no significant weather observed at this time
KPIE 201353Z 15012KT 10SM FEW011 24/21 A3010 RMK AO2 SLP193 T02390206

Conditions at: KPIE observed 20 February 2019  12:53 UTC
Temperature: 22.2°C (72°F)
Dewpoint: 20.0°C (68°F) [RH = 87%]
Pressure (altimeter): 30.09 inches Hg (1019.0 mb)
[Sea-level pressure: 1018.9 mb]
Winds: from the SE (140 degrees) at 13 MPH (11 knots; 5.7 m/s)
Visibility: 10 or more miles (16+ km)
Ceiling: at least 12,000 feet AGL
Clouds: few clouds at 8000 feet AGL
Present Weather: no significant weather observed at this time
KPIE 201253Z 14011KT 10SM FEW080 22/20 A3009 RMK AO2 SLP189 T02220200

Conditions at: KPIE observed 20 February 2019  11:53 UTC
Temperature: 21.7°C (71°F)
Dewpoint: 19.4°C (67°F) [RH = 87%]
Pressure (altimeter): 30.08 inches Hg (1018.7 mb)
[Sea-level pressure: 1018.4 mb]
Winds: from the SE (130 degrees) at 12 MPH (10 knots; 5.2 m/s)
Visibility: 10 or more miles (16+ km)
Ceiling: at least 12,000 feet AGL
Clouds: few clouds at 7500 feet AGL
Present Weather: no significant weather observed at this time
KPIE 201153Z 13010KT 10SM FEW075 22/19 A3008 RMK AO2 SLP184 T02170194 10217 20211 53000

Conditions at: KPIE observed 20 February 2019  10:53 UTC
Temperature: 21.7°C (71°F)
Dewpoint: 19.4°C (67°F) [RH = 87%]
Pressure (altimeter): 30.07 inches Hg (1018.4 mb)
[Sea-level pressure: 1018.1 mb]
Winds: from the SE (130 degrees) at 13 MPH (11 knots; 5.7 m/s)
Visibility: 10 or more miles (16+ km)
Ceiling: 8000 feet AGL
Clouds: overcast cloud deck at 8000 feet AGL
Present Weather:
SOME DATA ABOVE MAY BE INACCURATE!!!
"$" is an indication the sensor requires maintenance
KPIE 201053Z 13011KT 10SM OVC080 22/19 A3007 RMK AO2 SLP181 T02170194 $

Conditions at: KPIE observed 20 February 2019  09:53 UTC
Temperature: 21.7°C (71°F)
Dewpoint: 18.9°C (66°F) [RH = 84%]
Pressure (altimeter): 30.06 inches Hg (1018.0 mb)
[Sea-level pressure: 1017.9 mb]
Winds: from the ESE (120 degrees) at 10 MPH (9 knots; 4.7 m/s)
Visibility: 10 or more miles (16+ km)
Ceiling: at least 12,000 feet AGL
Clouds: few clouds at 1500 feet AGL
Present Weather:
SOME DATA ABOVE MAY BE INACCURATE!!!
"$" is an indication the sensor requires maintenance
KPIE 200953Z AUTO 12009KT 10SM FEW015 22/19 A3006 RMK AO2 SLP179 T02170189 $

Conditions at: KPIE observed 20 February 2019  08:53 UTC
Temperature: 21.7°C (71°F)
Dewpoint: 18.9°C (66°F) [RH = 84%]
Pressure (altimeter): 30.08 inches Hg (1018.7 mb)
[Sea-level pressure: 1018.4 mb]
Winds: from the ESE (120 degrees) at 8 MPH (7 knots; 3.6 m/s)
Visibility: 10 or more miles (16+ km)
Ceiling: at least 12,000 feet AGL
Clouds: sky clear below 12,000 feet AGL
Present Weather:
SOME DATA ABOVE MAY BE INACCURATE!!!
"$" is an indication the sensor requires maintenance
KPIE 200853Z AUTO 12007KT 10SM CLR 22/19 A3008 RMK AO2 SLP184 T02170189 58012 $

Conditions at: KPIE observed 20 February 2019  07:53 UTC
Temperature: 21.1°C (70°F)
Dewpoint: 18.3°C (65°F) [RH = 84%]
Pressure (altimeter): 30.08 inches Hg (1018.7 mb)
[Sea-level pressure: 1018.6 mb]
Winds: from the ESE (120 degrees) at 9 MPH (8 knots; 4.2 m/s)
Visibility: 10 or more miles (16+ km)
Ceiling: at least 12,000 feet AGL
Clouds: sky clear below 12,000 feet AGL
Present Weather:
SOME DATA ABOVE MAY BE INACCURATE!!!
"$" is an indication the sensor requires maintenance
KPIE 200753Z AUTO 12008KT 10SM CLR 21/18 A3008 RMK AO2 SLP186 T02110183 $

Conditions at: KPIE observed 20 February 2019  06:53 UTC
Temperature: 21.1°C (70°F)
Dewpoint: 18.3°C (65°F) [RH = 84%]
Pressure (altimeter): 30.10 inches Hg (1019.4 mb)
[Sea-level pressure: 1019.4 mb]
Winds: from the ESE (120 degrees) at 8 MPH (7 knots; 3.6 m/s)
Visibility: 10 or more miles (16+ km)
Ceiling: at least 12,000 feet AGL
Clouds: sky clear below 12,000 feet AGL
Present Weather:
SOME DATA ABOVE MAY BE INACCURATE!!!
"$" is an indication the sensor requires maintenance
KPIE 200653Z AUTO 12007KT 10SM CLR 21/18 A3010 RMK AO2 SLP194 T02110183 $

Conditions at: KPIE observed 20 February 2019  05:53 UTC
Temperature: 21.7°C (71°F)
Dewpoint: 18.3°C (65°F) [RH = 81%]
Pressure (altimeter): 30.11 inches Hg (1019.7 mb)
[Sea-level pressure: 1019.6 mb]
Winds: from the ESE (120 degrees) at 9 MPH (8 knots; 4.2 m/s)
Visibility: 10 or more miles (16+ km)
Ceiling: at least 12,000 feet AGL
Clouds: sky clear below 12,000 feet AGL
Present Weather:
SOME DATA ABOVE MAY BE INACCURATE!!!
"$" is an indication the sensor requires maintenance
KPIE 200553Z AUTO 12008KT 10SM CLR 22/18 A3011 RMK AO2 SLP196 T02170183 10261 20211 58011 $

Conditions at: KPIE observed 20 February 2019  04:53 UTC
Temperature: 22.2°C (72°F)
Dewpoint: 17.8°C (64°F) [RH = 76%]
Pressure (altimeter): 30.13 inches Hg (1020.4 mb)
[Sea-level pressure: 1020.1 mb]
Winds: from the ESE (120 degrees) at 8 MPH (7 knots; 3.6 m/s)
Visibility: 10 or more miles (16+ km)
Ceiling: at least 12,000 feet AGL
Clouds: sky clear below 12,000 feet AGL
Present Weather:
SOME DATA ABOVE MAY BE INACCURATE!!!
"$" is an indication the sensor requires maintenance
KPIE 200453Z AUTO 12007KT 10SM CLR 22/18 A3013 RMK AO2 SLP201 T02220178 403000189 $

Conditions at: KPIE observed 20 February 2019  03:53 UTC
Temperature: 22.8°C (73°F)
Dewpoint: 18.3°C (65°F) [RH = 76%]
Pressure (altimeter): 30.14 inches Hg (1020.7 mb)
[Sea-level pressure: 1020.6 mb]
Winds: from the SE (140 degrees) at 7 MPH (6 knots; 3.1 m/s)
Visibility: 10 or more miles (16+ km)
Ceiling: at least 12,000 feet AGL
Clouds: sky clear below 12,000 feet AGL
Present Weather:
SOME DATA ABOVE MAY BE INACCURATE!!!
"$" is an indication the sensor requires maintenance
KPIE 200353Z 14006KT 10SM CLR 23/18 A3014 RMK AO2 SLP206 T02280183 $

Conditions at: KPIE observed 20 February 2019  02:53 UTC
Temperature: 22.2°C (72°F)
Dewpoint: 18.9°C (66°F) [RH = 82%]
Pressure (altimeter): 30.14 inches Hg (1020.7 mb)
[Sea-level pressure: 1020.7 mb]
Winds: from the ESE (120 degrees) at 3 MPH (3 knots; 1.6 m/s)
Visibility: 10 or more miles (16+ km)
Ceiling: at least 12,000 feet AGL
Clouds: few clouds at 5500 feet AGL
Present Weather:
SOME DATA ABOVE MAY BE INACCURATE!!!
"$" is an indication the sensor requires maintenance
KPIE 200253Z 12003KT 10SM FEW055 22/19 A3014 RMK AO2 SLP207 T02220189 51017 $

Conditions at: KPIE observed 20 February 2019  01:53 UTC
Temperature: 22.8°C (73°F)
Dewpoint: 18.3°C (65°F) [RH = 76%]
Pressure (altimeter): 30.14 inches Hg (1020.7 mb)
[Sea-level pressure: 1020.4 mb]
Winds: calm
Visibility: 10 or more miles (16+ km)
Ceiling: at least 12,000 feet AGL
Clouds: few clouds at 5000 feet AGL
Present Weather:
SOME DATA ABOVE MAY BE INACCURATE!!!
"$" is an indication the sensor requires maintenance
KPIE 200153Z 00000KT 10SM FEW050 23/18 A3014 RMK AO2 SLP204 T02280183 $

Conditions at: KPIE observed 20 February 2019  00:53 UTC
Temperature: 25.0°C (77°F)
Dewpoint: 17.8°C (64°F) [RH = 64%]
Pressure (altimeter): 30.12 inches Hg (1020.1 mb)
[Sea-level pressure: 1019.7 mb]
Winds: from the SSW (210 degrees) at 6 MPH (5 knots; 2.6 m/s)
Visibility: 10 or more miles (16+ km)
Ceiling: 6000 feet AGL
Clouds: broken clouds at 6000 feet AGL
Present Weather:
SOME DATA ABOVE MAY BE INACCURATE!!!
"$" is an indication the sensor requires maintenance
KPIE 200053Z 21005KT 10SM BKN060 25/18 A3012 RMK AO2 SLP197 T02500178 $

Conditions at: KPIE observed 19 February 2019  23:53 UTC
Temperature: 25.6°C (78°F)
Dewpoint: 16.7°C (62°F) [RH = 58%]
Pressure (altimeter): 30.09 inches Hg (1019.0 mb)
[Sea-level pressure: 1019.0 mb]
Winds: from the SW (230 degrees) at 7 MPH (6 knots; 3.1 m/s)
Visibility: 10 or more miles (16+ km)
Ceiling: 6000 feet AGL
Clouds: broken clouds at 6000 feet AGL
Present Weather:
SOME DATA ABOVE MAY BE INACCURATE!!!
"$" is an indication the sensor requires maintenance
KPIE 192353Z 23006KT 10SM BKN060 26/17 A3009 RMK AO2 SLP190 T02560167 10300 20256 55000 $

Conditions at: KPIE observed 19 February 2019  22:53 UTC
Temperature: 27.2°C (81°F)
Dewpoint: 17.8°C (64°F) [RH = 57%]
Pressure (altimeter): 30.08 inches Hg (1018.7 mb)
[Sea-level pressure: 1018.7 mb]
Winds: from the SW (220 degrees) at 8 MPH (7 knots; 3.6 m/s)
Visibility: 10 or more miles (16+ km)
Ceiling: 5500 feet AGL
Clouds: broken clouds at 5500 feet AGL
Present Weather:
SOME DATA ABOVE MAY BE INACCURATE!!!
"$" is an indication the sensor requires maintenance
KPIE 192253Z 22007KT 10SM BKN055 27/18 A3008 RMK AO2 SLP187 T02720178 $

Conditions at: KPIE observed 19 February 2019  21:53 UTC
Temperature: 28.9°C (84°F)
Dewpoint: 19.4°C (67°F) [RH = 57%]
Pressure (altimeter): 30.09 inches Hg (1019.0 mb)
[Sea-level pressure: 1018.7 mb]
Winds: from the E (80 degrees) at 5 MPH (4 knots; 2.1 m/s)
Visibility: 10 or more miles (16+ km)
Ceiling: at least 12,000 feet AGL
Clouds: few clouds at 6000 feet AGL
Present Weather: no significant weather observed at this time
KPIE 192153Z 08004KT 10SM FEW060 29/19 A3009 RMK AO2 SLP187 T02890194

Conditions at: KPIE observed 19 February 2019  20:53 UTC
Temperature: 30.0°C (86°F)
Dewpoint: 18.3°C (65°F) [RH = 50%]
Pressure (altimeter): 30.09 inches Hg (1019.0 mb)
[Sea-level pressure: 1019.0 mb]
Winds: variable direction winds at 6 MPH (5 knots; 2.6 m/s)
Visibility: 10 or more miles (16+ km)
Ceiling: at least 12,000 feet AGL
Clouds: few clouds at 4500 feet AGL
Present Weather: automated observation with no human augmentation;
there may or may not be significant weather present at this time
KPIE 192053Z AUTO VRB05KT 10SM FEW045 30/18 A3009 RMK AO2 SLP190 T03000183 56030

Conditions at: KPIE observed 19 February 2019  19:53 UTC
Temperature: 28.3°C (83°F)
Dewpoint: 20.6°C (69°F) [RH = 63%]
Pressure (altimeter): 30.11 inches Hg (1019.7 mb)
[Sea-level pressure: 1019.7 mb]
Winds: from the ENE (70 degrees) at 7 MPH (6 knots; 3.1 m/s)
Visibility: 10 or more miles (16+ km)
Ceiling: at least 12,000 feet AGL
Clouds: sky clear below 12,000 feet AGL
Present Weather: no significant weather observed at this time
KPIE 191953Z 07006KT 10SM CLR 28/21 A3011 RMK AO2 SLP197 T02830206

Conditions at: KPIE observed 19 February 2019  18:53 UTC
Temperature: 26.7°C (80°F)
Dewpoint: 21.1°C (70°F) [RH = 71%]
Pressure (altimeter): 30.14 inches Hg (1020.7 mb)
[Sea-level pressure: 1020.6 mb]
Winds: from the ENE (60 degrees) at 9 MPH (8 knots; 4.2 m/s)
Visibility: 10 or more miles (16+ km)
Ceiling: at least 12,000 feet AGL
Clouds: sky clear below 12,000 feet AGL
Present Weather: no significant weather observed at this time
KPIE 191853Z 06008KT 10SM CLR 27/21 A3014 RMK AO2 SLP206 T02670211

Conditions at: KPIE observed 19 February 2019  17:53 UTC
Temperature: 26.1°C (79°F)
Dewpoint: 20.6°C (69°F) [RH = 72%]
Pressure (altimeter): 30.18 inches Hg (1022.1 mb)
[Sea-level pressure: 1022.0 mb]
Winds: from the E (80 degrees) at 8 MPH (7 knots; 3.6 m/s)
Visibility: 9 miles (14 km)
Ceiling: at least 12,000 feet AGL
Clouds: sky clear below 12,000 feet AGL
Present Weather: no significant weather observed at this time
KPIE 191753Z 08007KT 9SM CLR 26/21 A3018 RMK AO2 SLP220 T02610206 10272 20194 58017